Time;durP1;ratioP1;P1;durP2;ratioP2;P2;SDS_P1;SDS_P2;PMS_P1;PMS_P2;Temp;Humidity;BMP_temperature;BMP_pressure;BME280_temperature;BME280_humidity;BME280_pressure;Samples;Min_cycle;Max_cycle;Signal;HPM_P1;HPM_P2
2023/10/20 00:00:40;;;;;;;34.60;24.20;;;;;;;15.00;62.49;98035.06;109611;1252;60966;-53
2023/10/20 00:03:07;;;;;;;35.50;26.10;;;;;;;15.06;62.50;98035.65;109615;1252;60100;-53
2023/10/20 00:05:34;;;;;;;33.20;23.00;;;;;;;15.10;62.53;98032.02;109340;1252;74491;-53
2023/10/20 00:08:02;;;;;;;33.90;24.10;;;;;;;15.12;62.59;98028.55;109635;1253;68549;-53
2023/10/20 00:10:34;;;;;;;33.80;23.80;;;;;;;15.14;62.48;98029.22;109594;1252;72682;-53
2023/10/20 00:13:02;;;;;;;41.70;26.40;;;;;;;15.12;62.56;98018.48;109629;1253;59046;-53
2023/10/20 00:15:29;;;;;;;34.60;24.30;;;;;;;15.19;62.54;98016.91;109593;1252;58972;-53
2023/10/20 00:17:55;;;;;;;35.30;25.00;;;;;;;15.29;62.24;98016.22;109520;1252;74394;-52
2023/10/20 00:20:22;;;;;;;34.30;24.40;;;;;;;15.27;62.10;98014.31;109568;1252;68696;-53
2023/10/20 00:22:49;;;;;;;32.70;24.40;;;;;;;15.21;62.38;98015.05;109568;1252;72552;-53
2023/10/20 00:25:17;;;;;;;36.40;23.90;;;;;;;15.17;62.69;98015.99;109625;1252;59653;-53
2023/10/20 00:27:43;;;;;;;38.40;26.90;;;;;;;15.20;62.56;98009.23;109586;1252;59067;-53
2023/10/20 00:30:11;;;;;;;36.00;25.00;;;;;;;15.25;62.48;98011.61;109395;1252;74594;-54
2023/10/20 00:32:41;;;;;;;36.20;25.00;;;;;;;15.30;62.25;98009.73;109651;1252;68790;-53
2023/10/20 00:35:09;;;;;;;33.80;23.30;;;;;;;15.33;62.24;98006.16;109571;1252;71246;-58
2023/10/20 00:37:36;;;;;;;37.90;25.10;;;;;;;15.38;62.30;97998.77;109616;1252;61017;-53
2023/10/20 00:40:09;;;;;;;34.70;24.90;;;;;;;15.43;62.12;98003.99;109600;1252;59455;-54
2023/10/20 00:42:36;;;;;;;36.80;25.00;;;;;;;15.45;62.06;98001.16;109406;1252;74697;-53
2023/10/20 00:45:04;;;;;;;35.10;25.20;;;;;;;15.47;62.07;97996.45;109666;1251;68595;-53
2023/10/20 00:47:32;;;;;;;37.70;25.70;;;;;;;15.55;61.92;97994.54;109396;1251;71237;-53
2023/10/20 00:49:59;;;;;;;36.40;25.80;;;;;;;15.59;61.72;97991.50;109603;1251;60862;-53
2023/10/20 00:52:26;;;;;;;38.30;25.60;;;;;;;15.53;61.90;97986.13;109500;1252;59064;-53
2023/10/20 00:54:53;;;;;;;37.50;24.20;;;;;;;15.50;62.12;97986.83;109695;1250;74505;-53
2023/10/20 00:57:19;;;;;;;35.20;25.00;;;;;;;15.46;62.32;97985.73;109357;1250;67385;-53
2023/10/20 00:59:46;;;;;;;37.60;24.40;;;;;;;15.43;62.46;97977.73;109623;1251;72571;-53
2023/10/20 01:02:13;;;;;;;34.50;24.10;;;;;;;15.40;62.58;97977.77;109637;1250;59574;-53
2023/10/20 01:04:40;;;;;;;36.90;26.60;;;;;;;15.50;62.36;97979.09;109691;1251;59373;-53
2023/10/20 01:07:07;;;;;;;38.30;24.90;;;;;;;15.49;62.48;97978.81;109322;1251;74699;-53
2023/10/20 01:09:33;;;;;;;35.20;24.10;;;;;;;15.47;62.60;97978.38;109602;1250;68510;-53
2023/10/20 01:12:00;;;;;;;35.50;25.50;;;;;;;15.42;62.88;97975.99;109671;1251;72488;-53
2023/10/20 01:14:27;;;;;;;35.10;25.50;;;;;;;15.45;62.79;97977.82;109637;1250;60899;-53
2023/10/20 01:16:54;;;;;;;37.80;27.10;;;;;;;15.49;62.78;97975.45;109377;1254;59517;-53
2023/10/20 01:19:20;;;;;;;40.80;24.60;;;;;;;15.44;63.07;97972.60;109662;1252;73374;-53
2023/10/20 01:21:47;;;;;;;38.80;25.80;;;;;;;15.38;63.48;97976.61;109591;1253;68562;-53
2023/10/20 01:24:14;;;;;;;47.70;28.70;;;;;;;15.48;63.20;97971.21;109531;1252;72546;-53
2023/10/20 01:26:43;;;;;;;41.00;28.60;;;;;;;15.52;62.93;97973.30;109559;1252;60940;-53
2023/10/20 01:29:12;;;;;;;38.90;26.80;;;;;;;15.52;62.98;97970.63;109584;1253;60177;-53
2023/10/20 01:31:38;;;;;;;41.80;27.90;;;;;;;15.53;62.78;97969.67;109586;1253;73387;-53
2023/10/20 01:34:05;;;;;;;36.40;25.70;;;;;;;15.50;62.93;97969.11;109376;1251;68581;-53
2023/10/20 01:36:32;;;;;;;36.40;26.30;;;;;;;15.51;63.05;97962.30;109693;1251;71472;-53
2023/10/20 01:38:59;;;;;;;40.60;26.40;;;;;;;15.50;63.18;97965.73;109687;1250;60906;-53
2023/10/20 01:41:26;;;;;;;34.70;25.10;;;;;;;15.49;63.24;97963.60;109747;1250;58870;-54
2023/10/20 01:43:53;;;;;;;34.50;24.90;;;;;;;15.51;63.40;97967.33;109623;1251;73206;-53
2023/10/20 01:46:19;;;;;;;38.60;26.40;;;;;;;15.56;63.25;97965.59;109575;1251;68544;-54
2023/10/20 01:48:46;;;;;;;36.50;25.70;;;;;;;15.62;62.96;97968.14;109656;1252;71795;-53
2023/10/20 01:51:13;;;;;;;35.80;25.80;;;;;;;15.65;62.85;97968.19;109598;1253;60487;-53
2023/10/20 01:53:41;;;;;;;35.30;25.90;;;;;;;15.68;62.80;97961.30;109641;1252;60123;-55
2023/10/20 01:56:07;;;;;;;36.20;25.00;;;;;;;15.76;62.72;97962.55;109626;1253;74545;-53
2023/10/20 01:58:34;;;;;;;36.90;26.00;;;;;;;15.80;62.60;97955.77;109529;1252;68543;-53
2023/10/20 02:01:01;;;;;;;34.80;25.00;;;;;;;15.90;62.19;97955.20;109594;1251;72600;-53
2023/10/20 02:03:28;;;;;;;37.30;27.60;;;;;;;15.88;61.94;97953.88;109663;1251;60846;-53
2023/10/20 02:05:54;;;;;;;35.70;26.90;;;;;;;15.85;62.26;97948.92;109667;1252;59000;-54
2023/10/20 02:08:21;;;;;;;44.30;28.80;;;;;;;15.88;62.24;97943.74;109567;1253;73693;-54
2023/10/20 02:10:48;;;;;;;41.20;29.70;;;;;;;15.90;62.09;97939.98;109636;1253;67283;-53
2023/10/20 02:13:14;;;;;;;42.50;30.60;;;;;;;15.92;61.88;97936.79;109664;1252;71585;-53
2023/10/20 02:15:48;;;;;;;37.10;27.60;;;;;;;15.87;62.10;97938.95;109510;1252;61019;-54
2023/10/20 02:18:15;;;;;;;40.20;28.10;;;;;;;15.84;62.25;97933.71;109641;1252;59179;-53
2023/10/20 02:20:43;;;;;;;35.80;26.70;;;;;;;15.71;62.90;97927.10;109212;1253;73366;-53
2023/10/20 02:23:11;;;;;;;39.90;28.70;;;;;;;15.59;63.32;97915.20;109384;1252;67399;-53
2023/10/20 02:25:37;;;;;;;35.90;27.90;;;;;;;15.57;63.56;97917.85;109345;1252;72756;-53
2023/10/20 02:28:04;;;;;;;41.70;28.80;;;;;;;15.56;63.76;97919.77;109549;1252;61204;-54
2023/10/20 02:30:32;;;;;;;41.10;28.60;;;;;;;15.56;63.95;97912.05;109220;1252;60188;-54
2023/10/20 02:33:00;;;;;;;38.90;28.10;;;;;;;15.66;63.90;97909.09;109621;1252;74571;-53
2023/10/20 02:35:26;;;;;;;41.80;28.20;;;;;;;15.66;63.77;97904.03;109619;1252;68517;-53
2023/10/20 02:37:53;;;;;;;39.90;29.40;;;;;;;15.63;63.88;97902.10;109592;1252;72170;-53
2023/10/20 02:40:20;;;;;;;42.20;28.70;;;;;;;15.59;64.25;97902.80;109628;1252;60900;-53
2023/10/20 02:42:47;;;;;;;42.40;30.20;;;;;;;15.72;63.99;97903.02;109589;1251;59053;-53
2023/10/20 02:45:13;;;;;;;39.30;30.40;;;;;;;15.75;63.86;97896.75;109737;1250;73199;-53
2023/10/20 02:47:40;;;;;;;41.10;30.50;;;;;;;15.82;63.67;97898.70;109611;1251;68632;-53
2023/10/20 02:50:07;;;;;;;48.20;33.30;;;;;;;15.78;63.56;97897.48;109621;1251;73223;-54
2023/10/20 02:52:35;;;;;;;45.00;32.60;;;;;;;15.77;63.76;97894.66;109706;1251;59721;-53
2023/10/20 02:55:02;;;;;;;46.90;31.20;;;;;;;15.81;63.66;97891.50;109761;1251;59012;-54
2023/10/20 02:57:29;;;;;;;40.90;30.20;;;;;;;15.73;64.15;97888.39;109808;1250;74869;-53
2023/10/20 02:59:56;;;;;;;40.30;30.60;;;;;;;15.42;65.58;97884.10;109662;1251;68403;-54
2023/10/20 03:02:23;;;;;;;37.80;28.40;;;;;;;15.41;65.93;97885.33;109762;1250;72461;-53
2023/10/20 03:04:55;;;;;;;38.90;28.40;;;;;;;15.48;65.89;97886.70;109724;1251;61443;-53
2023/10/20 03:07:27;;;;;;;43.50;28.90;;;;;;;15.89;64.22;97888.99;109766;1250;60205;-53
2023/10/20 03:09:54;;;;;;;39.00;28.60;;;;;;;15.89;63.85;97889.56;109748;1251;74560;-53
2023/10/20 03:12:20;;;;;;;41.00;30.40;;;;;;;15.86;64.39;97886.18;109696;1251;68599;-53
2023/10/20 03:14:47;;;;;;;44.80;31.10;;;;;;;15.92;64.00;97885.58;109757;1250;71562;-54
2023/10/20 03:17:16;;;;;;;41.20;28.80;;;;;;;16.03;63.75;97887.05;109599;1252;61007;-53
2023/10/20 03:19:43;;;;;;;42.00;29.30;;;;;;;16.11;63.50;97883.80;109597;1252;59018;-53
2023/10/20 03:22:11;;;;;;;41.50;29.50;;;;;;;16.11;63.41;97886.48;109720;1251;74678;-53
2023/10/20 03:24:40;;;;;;;40.40;28.50;;;;;;;16.08;63.60;97882.84;109796;1250;68418;-53
2023/10/20 03:27:08;;;;;;;;;;;;;;;16.10;63.74;97882.19;109625;1251;72415;-53
2023/10/20 03:29:36;;;;;;;40.20;29.90;;;;;;;16.19;63.18;97883.99;109644;1251;60082;-53
2023/10/20 03:32:03;;;;;;;43.40;30.20;;;;;;;16.19;62.88;97880.20;109536;1253;60013;-54
2023/10/20 03:34:31;;;;;;;40.50;30.00;;;;;;;16.15;63.24;97881.38;109645;1251;73443;-53
2023/10/20 03:36:59;;;;;;;39.10;29.70;;;;;;;16.16;63.24;97877.01;109461;1251;68012;-53
2023/10/20 03:39:27;;;;;;;42.40;27.50;;;;;;;16.19;63.22;97877.73;109764;1250;70281;-53
2023/10/20 03:41:54;;;;;;;43.50;29.30;;;;;;;16.23;63.16;97878.58;109487;1254;60048;-53
2023/10/20 03:44:21;;;;;;;42.60;29.70;;;;;;;16.27;63.02;97879.17;109064;1255;59191;-53
2023/10/20 03:46:56;;;;;;;43.90;31.00;;;;;;;16.30;62.99;97875.58;109419;1254;73462;-53
2023/10/20 03:49:23;;;;;;;52.70;33.50;;;;;;;16.34;62.92;97883.52;109163;1253;67807;-53
2023/10/20 03:51:49;;;;;;;57.60;34.60;;;;;;;16.35;62.79;97887.96;109054;1253;72531;-53
2023/10/20 03:54:19;;;;;;;48.30;34.10;;;;;;;16.30;62.77;97883.83;109341;1253;60981;-53
2023/10/20 03:56:46;;;;;;;54.80;37.50;;;;;;;16.25;63.07;97877.50;109504;1254;59117;-53
2023/10/20 03:59:16;;;;;;;60.60;40.70;;;;;;;16.23;63.22;97870.00;109022;1258;72247;-53
2023/10/20 04:01:43;;;;;;;89.10;56.10;;;;;;;16.22;63.29;97861.77;109063;1257;68448;-53
2023/10/20 04:04:11;;;;;;;87.80;56.10;;;;;;;16.19;63.39;97859.40;109050;1259;71920;-54
2023/10/20 04:06:38;;;;;;;87.80;57.60;;;;;;;16.17;63.78;97852.20;109011;1258;59834;-53
2023/10/20 04:09:09;;;;;;;74.00;48.80;;;;;;;16.19;63.91;97847.72;109009;1258;60467;-53
2023/10/20 04:11:37;;;;;;;59.50;39.90;;;;;;;16.16;64.03;97840.48;109036;1260;74508;-53
2023/10/20 04:14:06;;;;;;;60.80;40.50;;;;;;;16.20;63.79;97838.58;109246;1256;68624;-54
2023/10/20 04:16:39;;;;;;;61.50;41.50;;;;;;;16.33;63.49;97845.05;109180;1257;72532;-53
2023/10/20 04:19:09;;;;;;;64.30;44.50;;;;;;;16.33;63.47;97845.15;109054;1257;60929;-53
2023/10/20 04:21:38;;;;;;;91.10;62.40;;;;;;;16.34;63.49;97843.48;109200;1255;59053;-53
2023/10/20 04:24:09;;;;;;;94.30;64.20;;;;;;;16.24;63.89;97841.73;109123;1257;73223;-55
2023/10/20 04:26:37;;;;;;;118.10;81.90;;;;;;;16.33;63.77;97847.22;109183;1257;68713;-56
2023/10/20 04:58:45;;;;;;;48.70;34.80;;;;;;;16.39;64.46;97816.16;109720;1251;60876;-53
2023/10/20 05:01:27;;;;;;;44.10;32.30;;;;;;;16.47;64.41;97810.19;109683;1251;60197;-53
2023/10/20 05:03:57;;;;;;;50.60;36.20;;;;;;;16.50;64.37;97811.05;109691;1251;73144;-52
2023/10/20 05:06:31;;;;;;;46.70;35.30;;;;;;;16.61;64.14;97804.45;109758;1251;69028;-52
2023/10/20 05:08:58;;;;;;;53.70;37.90;;;;;;;16.66;63.94;97805.55;109548;1251;72543;-52
2023/10/20 05:11:25;;;;;;;56.20;40.00;;;;;;;16.69;63.88;97806.43;109750;1251;59864;-52
2023/10/20 05:13:52;;;;;;;55.70;38.60;;;;;;;16.68;64.02;97806.09;109743;1251;60017;-52
2023/10/20 05:16:21;;;;;;;64.70;44.90;;;;;;;16.72;63.96;97809.02;109781;1250;73613;-52
2023/10/20 05:18:48;;;;;;;69.20;47.50;;;;;;;16.71;64.17;97805.52;109662;1251;68481;-52
2023/10/20 05:21:15;;;;;;;62.30;47.70;;;;;;;16.72;64.21;97794.45;109731;1251;72728;-52
2023/10/20 05:23:43;;;;;;;67.30;49.80;;;;;;;16.78;64.20;97793.73;109719;1251;60927;-52
2023/10/20 05:26:10;;;;;;;66.70;49.30;;;;;;;16.81;64.30;97796.19;109738;1251;60136;-54
2023/10/20 05:28:37;;;;;;;72.00;50.00;;;;;;;16.82;64.47;97798.38;109797;1251;74964;-53
2023/10/20 05:31:04;;;;;;;61.90;44.40;;;;;;;16.91;64.31;97796.17;109693;1251;68765;-53
2023/10/20 05:33:30;;;;;;;58.20;42.30;;;;;;;16.87;64.48;97790.86;109571;1251;72920;-53
2023/10/20 05:36:03;;;;;;;59.10;43.00;;;;;;;16.98;64.42;97793.84;109730;1251;60477;-53
2023/10/20 05:38:30;;;;;;;47.50;34.90;;;;;;;17.12;64.40;97801.66;109719;1251;60043;-53
2023/10/20 05:41:00;;;;;;;47.60;36.50;;;;;;;17.23;63.89;97804.68;109772;1251;74695;-53
2023/10/20 05:43:27;;;;;;;47.70;33.40;;;;;;;17.42;63.44;97807.54;109410;1255;67896;-53
2023/10/20 05:45:53;;;;;;;42.50;31.60;;;;;;;17.54;62.82;97812.70;109532;1256;72553;-52
2023/10/20 05:48:20;;;;;;;39.70;28.10;;;;;;;17.58;62.64;97813.89;109549;1254;61969;-52
2023/10/20 05:50:47;;;;;;;33.90;27.50;;;;;;;17.58;62.55;97806.54;109557;1253;58980;-53
2023/10/20 05:53:14;;;;;;;35.90;26.60;;;;;;;17.55;62.62;97798.09;109568;1253;74433;-52
2023/10/20 05:55:41;;;;;;;36.10;26.80;;;;;;;17.60;62.75;97802.33;109552;1252;68512;-52
2023/10/20 05:58:07;;;;;;;44.30;28.20;;;;;;;17.61;63.15;97806.55;109500;1254;71355;-52
2023/10/20 06:00:36;;;;;;;33.80;25.70;;;;;;;17.69;63.01;97809.48;109596;1252;62048;-52
2023/10/20 06:03:22;;;;;;;36.80;25.90;;;;;;;17.69;62.67;97799.41;109562;1252;59020;-52
2023/10/20 06:05:49;;;;;;;36.20;26.30;;;;;;;17.67;63.11;97802.52;109559;1253;74444;-52
2023/10/20 06:08:16;;;;;;;34.40;26.10;;;;;;;17.65;63.27;97807.35;109531;1252;68602;-53
2023/10/20 06:10:44;;;;;;;46.10;28.80;;;;;;;17.50;64.13;97809.02;109512;1252;71468;-52
2023/10/20 06:13:11;;;;;;;40.90;29.50;;;;;;;17.65;64.05;97808.38;109510;1253;60436;-52
2023/10/20 06:15:39;;;;;;;35.80;28.40;;;;;;;17.84;63.13;97802.90;109554;1255;60093;-53
2023/10/20 06:18:06;;;;;;;37.30;27.20;;;;;;;17.87;63.06;97796.47;109589;1253;72577;-52
2023/10/20 06:20:38;;;;;;;38.90;27.80;;;;;;;17.90;63.02;97802.20;109276;1252;68531;-53
2023/10/20 06:23:05;;;;;;;35.40;27.00;;;;;;;17.84;63.48;97804.13;109570;1253;72585;-53
2023/10/20 06:25:31;;;;;;;41.20;28.70;;;;;;;17.95;63.39;97806.14;109454;1254;60962;-53
2023/10/20 06:27:58;;;;;;;39.10;26.80;;;;;;;17.97;63.09;97805.98;109564;1253;59193;-53
2023/10/20 06:30:25;;;;;;;41.70;30.40;;;;;;;18.02;63.18;97811.10;109577;1252;73289;-53
2023/10/20 06:33:37;;;;;;;38.30;27.80;;;;;;;18.10;63.16;97808.60;109410;1252;68752;-54
2023/10/20 06:35:50;;;;;;;39.00;28.60;;;;;;;18.00;63.57;97806.92;109394;1254;71554;-53
2023/10/20 06:39:06;;;;;;;;;;;;;;;17.92;64.59;97801.88;109725;1251;61615;-54
2023/10/20 06:41:08;;;;;;;38.30;26.70;;;;;;;17.99;64.82;97801.22;109646;1250;59009;-54
2023/10/20 06:43:35;;;;;;;39.70;27.70;;;;;;;18.11;64.23;97804.45;109770;1250;74490;-53
2023/10/20 06:46:01;;;;;;;36.20;26.90;;;;;;;18.17;64.32;97805.60;109781;1251;68543;-54
2023/10/20 06:48:28;;;;;;;33.00;25.50;;;;;;;18.16;64.74;97806.67;109401;1251;72117;-53
2023/10/20 06:50:56;;;;;;;39.10;24.80;;;;;;;18.13;64.74;97806.59;109711;1250;61807;-54
2023/10/20 06:53:22;;;;;;;31.50;25.10;;;;;;;18.13;64.97;97807.92;109611;1251;58860;-53
2023/10/20 06:55:50;;;;;;;31.90;25.10;;;;;;;17.99;65.26;97816.52;109756;1251;74405;-54
2023/10/20 06:58:37;;;;;;;34.90;24.30;;;;;;;17.69;66.90;97795.71;109723;1251;67557;-53
2023/10/20 07:01:06;;;;;;;34.00;25.60;;;;;;;17.83;67.06;97789.92;109717;1251;71120;-53
2023/10/20 07:03:33;;;;;;;30.90;25.00;;;;;;;17.88;67.40;97782.61;109701;1251;60490;-54
2023/10/20 07:06:00;;;;;;;36.00;25.50;;;;;;;17.98;67.12;97786.48;109734;1251;59229;-54
2023/10/20 07:08:27;;;;;;;36.40;28.90;;;;;;;18.02;67.11;97779.59;109788;1250;73450;-54
2023/10/20 07:10:54;;;;;;;38.40;28.60;;;;;;;18.12;66.97;97781.27;109768;1251;68566;-55
2023/10/20 07:13:20;;;;;;;34.20;26.30;;;;;;;18.12;67.25;97776.67;109332;1251;72744;-54
2023/10/20 07:15:52;;;;;;;36.70;27.60;;;;;;;18.15;67.03;97767.77;109740;1251;61701;-53
2023/10/20 07:18:19;;;;;;;33.50;26.70;;;;;;;18.19;67.26;97768.88;109365;1254;59085;-55
2023/10/20 07:20:46;;;;;;;41.70;29.70;;;;;;;18.21;67.45;97773.12;109523;1252;74672;-53
2023/10/20 07:23:13;;;;;;;37.60;26.80;;;;;;;18.22;67.65;97771.66;109512;1253;68427;-53
2023/10/20 07:25:39;;;;;;;36.70;28.30;;;;;;;18.23;67.56;97773.65;109527;1253;71832;-53
2023/10/20 07:28:07;;;;;;;36.90;26.10;;;;;;;18.16;67.77;97760.11;109491;1254;62053;-53
2023/10/20 07:30:34;;;;;;;47.50;38.00;;;;;;;18.26;67.64;97746.39;109508;1253;60372;-52
2023/10/20 07:33:03;;;;;;;62.60;48.80;;;;;;;18.17;68.18;97738.59;109516;1254;74680;-53
2023/10/20 07:35:30;;;;;;;45.50;34.60;;;;;;;18.07;69.19;97748.47;109537;1251;67287;-53
2023/10/20 07:37:57;;;;;;;44.60;33.60;;;;;;;18.13;69.29;97760.83;109480;1251;72607;-53
2023/10/20 07:40:27;;;;;;;36.40;26.30;;;;;;;18.32;69.28;97763.88;109724;1250;61787;-53
2023/10/20 07:42:53;;;;;;;33.20;24.70;;;;;;;18.43;69.22;97758.80;109641;1251;59018;-54
2023/10/20 07:45:20;;;;;;;29.40;24.70;;;;;;;18.59;69.17;97752.61;109558;1251;74655;-54
2023/10/20 07:47:47;;;;;;;30.20;23.30;;;;;;;18.74;68.81;97758.48;109550;1251;68616;-54
2023/10/20 07:50:14;;;;;;;30.50;23.10;;;;;;;18.79;68.43;97762.75;109504;1253;71658;-54
2023/10/20 07:52:40;;;;;;;32.80;23.70;;;;;;;18.81;68.40;97767.14;109499;1252;61895;-54
2023/10/20 07:55:08;;;;;;;28.90;22.80;;;;;;;18.88;68.30;97761.65;109563;1254;60609;-53
2023/10/20 07:57:35;;;;;;;30.30;24.00;;;;;;;18.91;68.21;97759.38;109529;1252;74553;-53
2023/10/20 08:00:03;;;;;;;28.90;21.80;;;;;;;18.86;68.72;97760.67;109545;1253;67362;-53
2023/10/20 08:02:38;;;;;;;27.70;23.60;;;;;;;18.82;68.78;97761.27;109534;1252;72612;-53
2023/10/20 08:05:05;;;;;;;30.90;23.30;;;;;;;18.85;69.11;97760.09;109483;1253;62045;-52
2023/10/20 08:07:33;;;;;;;27.90;22.90;;;;;;;18.96;68.82;97761.52;109534;1253;59072;-53
2023/10/20 08:10:00;;;;;;;35.50;23.60;;;;;;;18.97;68.33;97763.18;109417;1253;74429;-53
2023/10/20 08:12:26;;;;;;;27.50;22.00;;;;;;;18.89;68.77;97764.30;109449;1253;66630;-52
2023/10/20 08:14:53;;;;;;;34.40;23.50;;;;;;;18.87;69.12;97765.42;109496;1251;72656;-53
2023/10/20 08:17:20;;;;;;;31.30;23.10;;;;;;;18.78;69.93;97762.58;109504;1254;61706;-53
2023/10/20 08:19:46;;;;;;;30.40;21.80;;;;;;;18.85;69.85;97770.03;109162;1251;58988;-53
2023/10/20 08:22:13;;;;;;;28.00;22.40;;;;;;;18.95;69.84;97777.11;109440;1251;73214;-53
2023/10/20 08:24:40;;;;;;;27.80;21.60;;;;;;;19.00;69.85;97782.59;109526;1253;69897;-53
2023/10/20 08:27:07;;;;;;;26.60;21.90;;;;;;;19.07;69.86;97788.43;109478;1253;71238;-54
2023/10/20 08:29:34;;;;;;;28.60;22.10;;;;;;;19.13;69.52;97794.15;109362;1252;61945;-53
2023/10/20 08:32:03;;;;;;;32.00;23.20;;;;;;;19.15;69.40;97793.67;109514;1252;60504;-52
2023/10/20 08:34:31;;;;;;;28.70;22.70;;;;;;;19.23;68.80;97794.77;109536;1253;73366;-52
2023/10/20 08:36:58;;;;;;;;;;;;;;;19.25;68.82;97795.92;109537;1252;67335;-53
2023/10/20 08:39:27;;;;;;;30.50;22.40;;;;;;;19.26;68.90;97795.38;109533;1252;72750;-54
2023/10/20 08:41:54;;;;;;;26.10;21.80;;;;;;;19.26;69.15;97795.77;109541;1253;62530;-53
2023/10/20 08:44:21;;;;;;;31.30;25.00;;;;;;;19.34;68.93;97802.86;109664;1250;60083;-53
2023/10/20 08:46:49;;;;;;;31.20;24.30;;;;;;;19.33;68.91;97800.98;109484;1251;73517;-53
2023/10/20 08:49:18;;;;;;;40.80;24.90;;;;;;;19.30;69.28;97790.36;109414;1250;67607;-54
2023/10/20 08:51:46;;;;;;;26.60;20.70;;;;;;;19.45;68.97;97785.55;109228;1251;72482;-53
2023/10/20 08:54:13;;;;;;;26.20;20.80;;;;;;;19.53;68.70;97784.55;109553;1251;61714;-54
2023/10/20 08:56:40;;;;;;;23.60;20.30;;;;;;;19.51;68.55;97787.02;109573;1250;60441;-53
2023/10/20 08:59:07;;;;;;;26.50;20.70;;;;;;;19.53;68.61;97793.17;109711;1250;73457;-54
2023/10/20 09:01:33;;;;;;;27.30;22.70;;;;;;;19.55;68.63;97792.14;109717;1250;67469;-54
2023/10/20 09:04:04;;;;;;;27.90;21.90;;;;;;;19.69;68.03;97793.23;109622;1251;71530;-52
2023/10/20 09:06:31;;;;;;;27.00;21.50;;;;;;;19.73;67.67;97791.55;109749;1250;62194;-53
2023/10/20 09:08:59;;;;;;;25.40;20.40;;;;;;;19.80;67.73;97794.63;109759;1251;58918;-54
2023/10/20 09:11:30;;;;;;;37.60;24.70;;;;;;;19.83;67.36;97800.06;109744;1250;74669;-53
2023/10/20 09:13:58;;;;;;;143.50;84.10;;;;;;;19.83;67.54;97800.61;109736;1250;69726;-53
2023/10/20 09:16:25;;;;;;;134.50;75.10;;;;;;;19.77;67.66;97805.16;109738;1250;72550;-52
2023/10/20 09:18:53;;;;;;;49.70;33.00;;;;;;;19.63;68.47;97804.22;109576;1251;62316;-52
2023/10/20 09:21:22;;;;;;;42.20;32.60;;;;;;;19.62;68.85;97806.67;109717;1250;61308;-52
2023/10/20 09:24:02;;;;;;;43.80;31.90;;;;;;;19.70;69.08;97804.67;109722;1250;75603;-53
2023/10/20 09:26:31;;;;;;;59.70;41.50;;;;;;;19.87;68.59;97807.30;109656;1251;68680;-52
2023/10/20 09:28:58;;;;;;;66.70;44.90;;;;;;;19.54;70.19;97804.25;109682;1250;71229;-53
2023/10/20 09:31:27;;;;;;;;;;;;;;;19.37;71.12;97805.81;109649;1251;61783;-52
2023/10/20 09:33:54;;;;;;;70.70;46.90;;;;;;;19.55;70.26;97804.60;109339;1254;60303;-52
2023/10/20 09:36:22;;;;;;;65.30;42.40;;;;;;;19.61;71.22;97800.66;109440;1253;73728;-56
2023/10/20 09:38:54;;;;;;;85.00;56.80;;;;;;;19.89;71.18;97790.77;109491;1253;67133;-52
2023/10/20 09:41:24;;;;;;;48.40;36.50;;;;;;;20.04;70.44;97790.15;109436;1253;72765;-53
2023/10/20 09:43:52;;;;;;;74.60;45.00;;;;;;;20.17;69.73;97785.27;109397;1254;60771;-53
2023/10/20 09:46:19;;;;;;;49.10;34.50;;;;;;;20.31;69.17;97783.80;109161;1256;60193;-52
2023/10/20 09:48:47;;;;;;;44.50;31.40;;;;;;;20.85;67.66;97787.27;109342;1254;74594;-53
2023/10/20 09:51:15;;;;;;;46.70;32.00;;;;;;;20.79;67.05;97791.19;109120;1255;68892;-51
2023/10/20 09:53:42;;;;;;;38.10;26.40;;;;;;;20.50;67.46;97792.41;109124;1255;72501;-53
2023/10/20 09:56:35;;;;;;;36.20;27.60;;;;;;;20.42;67.59;97796.63;109132;1256;60621;-52
2023/10/20 09:59:04;;;;;;;37.40;26.50;;;;;;;20.43;68.43;97796.25;109329;1256;60328;-53
2023/10/20 10:01:32;;;;;;;34.40;27.20;;;;;;;20.61;67.93;97791.52;109144;1256;74474;-53
2023/10/20 10:04:08;;;;;;;39.20;28.00;;;;;;;20.60;67.59;97793.23;109321;1254;68764;-52
2023/10/20 10:06:35;;;;;;;38.80;28.60;;;;;;;20.48;68.42;97793.77;109522;1252;73936;-53
2023/10/20 10:09:05;;;;;;;48.40;31.20;;;;;;;20.46;68.50;97792.48;109574;1252;61905;-53
2023/10/20 10:11:38;;;;;;;32.80;24.80;;;;;;;20.46;68.20;97794.20;109541;1252;59065;-51
2023/10/20 10:14:05;;;;;;;29.20;22.50;;;;;;;20.13;69.81;97788.75;109490;1252;73546;-53
2023/10/20 10:16:32;;;;;;;32.30;22.90;;;;;;;19.98;70.89;97791.73;109533;1252;68501;-52
2023/10/20 10:19:06;;;;;;;38.20;28.60;;;;;;;19.99;70.90;97794.95;109183;1251;72732;-52
2023/10/20 10:21:37;;;;;;;34.60;26.70;;;;;;;20.02;70.57;97792.59;109160;1253;60482;-52
2023/10/20 10:24:20;;;;;;;36.20;28.70;;;;;;;20.13;70.01;97793.76;109528;1251;60152;-53
2023/10/20 10:27:01;;;;;;;55.50;40.40;;;;;;;20.23;70.11;97780.08;109526;1252;74632;-52
2023/10/20 10:29:48;;;;;;;94.50;54.80;;;;;;;20.56;68.81;97779.98;109509;1252;66561;-52
2023/10/20 10:32:17;;;;;;;91.50;50.30;;;;;;;20.68;67.96;97784.02;109503;1252;71402;-53
2023/10/20 10:34:51;;;;;;;70.50;40.70;;;;;;;20.90;67.14;97787.20;109550;1252;60526;-52
2023/10/20 10:37:30;;;;;;;62.90;38.50;;;;;;;20.82;67.36;97790.19;109574;1252;59964;-53
2023/10/20 10:40:15;;;;;;;52.50;34.50;;;;;;;20.47;69.55;97796.23;109482;1252;72508;-52
2023/10/20 10:42:46;;;;;;;77.70;47.10;;;;;;;20.47;69.43;97796.86;109690;1250;68445;-53
2023/10/20 10:45:14;;;;;;;55.70;37.50;;;;;;;20.41;70.11;97794.11;109574;1251;71177;-53
2023/10/20 10:47:41;;;;;;;50.50;36.50;;;;;;;20.43;70.16;97796.17;109742;1250;61017;-52
2023/10/20 10:50:11;;;;;;;52.60;36.90;;;;;;;20.37;70.35;97798.78;109732;1250;59446;-53
2023/10/20 10:52:37;;;;;;;43.50;32.00;;;;;;;20.31;70.88;97795.41;109768;1250;73430;-52
2023/10/20 10:55:05;;;;;;;84.70;47.50;;;;;;;20.28;71.26;97792.80;109732;1250;67110;-52
2023/10/20 10:57:33;;;;;;;68.90;37.30;;;;;;;20.40;71.26;97792.61;109690;1250;72753;-51
2023/10/20 11:00:00;;;;;;;65.30;40.00;;;;;;;20.42;71.09;97797.02;109618;1251;60092;-53
2023/10/20 11:02:28;;;;;;;;;;;;;;;20.43;71.37;97803.88;109584;1251;59069;-51
2023/10/20 11:04:55;;;;;;;40.90;29.90;;;;;;;20.49;70.97;97800.64;109688;1250;73153;-54
2023/10/20 11:07:22;;;;;;;33.10;22.20;;;;;;;20.54;70.51;97796.62;109602;1251;68536;-53
2023/10/20 11:09:51;;;;;;;38.20;27.10;;;;;;;20.52;71.08;97795.58;109584;1251;72708;-52
2023/10/20 11:12:18;;;;;;;41.60;30.00;;;;;;;20.64;71.18;97795.71;109417;1251;61996;-55
2023/10/20 11:14:45;;;;;;;30.90;23.20;;;;;;;20.59;71.43;97795.95;109690;1250;58917;-53
2023/10/20 11:17:13;;;;;;;43.50;26.80;;;;;;;20.66;71.39;97796.06;109694;1250;74488;-53
2023/10/20 11:19:40;;;;;;;31.50;22.20;;;;;;;20.77;70.71;97796.95;109579;1252;68533;-52
2023/10/20 11:22:14;;;;;;;29.90;21.80;;;;;;;20.82;70.46;97808.11;109327;1254;72487;-54
2023/10/20 11:24:41;;;;;;;27.10;19.90;;;;;;;20.81;71.42;97806.44;109344;1254;60731;-53
2023/10/20 11:27:08;;;;;;;33.20;22.50;;;;;;;20.76;71.71;97807.30;109345;1254;60268;-52
2023/10/20 11:29:36;;;;;;;24.60;19.30;;;;;;;20.96;71.82;97809.88;109385;1253;74555;-54
2023/10/20 11:32:21;;;;;;;29.50;24.30;;;;;;;21.17;70.99;97813.81;109452;1253;67569;-53
2023/10/20 11:34:50;;;;;;;27.40;23.30;;;;;;;21.28;70.24;97817.02;109400;1253;72551;-53
2023/10/20 11:37:17;;;;;;;26.10;20.60;;;;;;;21.27;70.43;97814.73;109052;1254;60601;-52
2023/10/20 11:39:44;;;;;;;34.50;24.30;;;;;;;21.22;70.58;97816.38;109346;1254;60213;-53
2023/10/20 11:42:11;;;;;;;30.50;22.50;;;;;;;21.10;71.18;97813.63;109404;1253;73354;-53
2023/10/20 11:44:38;;;;;;;29.60;23.70;;;;;;;21.07;71.84;97808.73;109505;1253;68660;-52